Capitol Logistics 207




KRFD
Chicago/Rockford International Airport
Rockford, Illinois
KMIA
Miami International Airport
Miami, Florida

Activity Log

Date Flight Route Aircraft Duration
10/20/2021 CPX207 AHMED TTH GQO MCN CTY RSW PALMZ1.RSW B752 2h 52m
08/04/2021 CPX207 PIGGG CYBIL PXV J73 LGC GOONS BULZI Q81 ENDEW JUULI SSCOT5 A30F 2h 58m
07/18/2021 CPX207 PIGGG CYBIL PXV J73 LGC GOONS BULZI Q81 ENDEW JUULI SSCOT5 A30F 2h 50m
07/13/2021 CPX207 PIGGG CYBIL PXV J73 LGC GOONS BULZI Q81 ENDEW JUULI SSCOT5 B763 2h 47m
05/20/2021 CPX207 PIGGG CYBIL PXV J73 LGC GOONS BULZI Q81 ENDEW JUULI SSCOT5 A30F 2h 54m
04/04/2021 CPX207 PIGGG CYBIL PXV J73 LGC GOONS BULZI Q81 ENDEW JUULI SSCOT5 B763 2h 46m
02/22/2021 CPX207 BVT J89 ATL J45 OMN HILEY7 B763 2h 52m
02/15/2021 CPX207 BVT J89 ATL J45 OMN HILEY7 B763 3h 02m
02/11/2021 CPX207 BVT J89 ATL J45 OMN HILEY7 B763 2h 54m
02/05/2021 CPX207 BVT J89 ATL J45 OMN HILEY7 B763 2h 54m
01/27/2021 CPX207 BVT J89 ATL J45 OMN HILEY7 B763 2h 56m
01/22/2021 CPX207 BVT J89 ATL J45 OMN HILEY7 B763 2h 37m
05/12/2020 CPX207 JERKY JOT TTH GQO AMG OMN MLB ANNEY4 B763 2h 48m
01/13/2020 CPX207 BVT J89 ATL J45 OMN HILEY7 B763 2h 56m
12/31/2019 CPX451 OBK J89 IIU J99 IRQ J53 ORL V159 TRV B738 3h 00m
12/30/2019 CPX207 BVT J89 ATL J45 OMN HILEY7 B763 3h 24m
11/28/2019 CPX451 BVT J89 ATL J45 OMN HILEY7 B738 2h 47m
07/06/2019 CPX207 BVT J89 ATL J45 OMN HILEY7 B763 3h 10m
05/10/2019 CPX207 BVT J89 ATL J45 OMN HILEY7 B763 2h 50m
12/08/2018 CPX351 JOT LVT TAY SSCOT5 B752 2h 46m
11/29/2018 CPX351 JOT LVT TAY SSCOT4 B752 2h 52m

Route Details

Aircraft Information
Group: North America Fleet
Types: B738,B752,B762,B763
Route Data
Demand: H
Distance: 1078nm
Duration: 2h 50m
Recm'd Route: PIGGG CYBIL PXV J73 LGC GOONS BULZI Q81 ENDEW JUULI SSCOT5
Origin Wx: KRFD 242054Z 10011G18KT 10SM FEW090 BKN160 19/04 A3016 RMK AO2 SLP213 T01890044 56017
Dest. Wx: KMIA 242053Z 13010KT 10SM SCT039 SCT250 29/20 A3001 RMK AO2 SLP163 T02940200 56008 $
Notes:

Financial History
Total Freight: 1,743,466lbs
Average Load: 83,022lbs/flt
Fuel Used: 804,908lbs
Avg. Fuel Used: 38,329lbs/flt
Fuel Expense: $523,918
Avg. Fuel Expense: $24,948
Avg. Fuel Cost: $0.62/lbs
Total Gross Income: $3,018,271
Pilot Pay: $3,699
Total Expenses: $363,189
Total Revenue: $2,120,943
Average Revenue: $143,727.17